sensor_id;sensor_type;location;lat;lon;timestamp;pressure;altitude;pressure_sealevel;temperature;humidity
80124;BME280;69433;48.642;9.142;2023-05-27T00:00:18;97664.44;;;21.84;35.04
80124;BME280;69433;48.642;9.142;2023-05-27T00:02:43;97677.06;;;21.88;35.14
80124;BME280;69433;48.642;9.142;2023-05-27T00:05:09;97670.56;;;21.89;34.75
80124;BME280;69433;48.642;9.142;2023-05-27T00:07:34;97671.31;;;21.85;35.01
80124;BME280;69433;48.642;9.142;2023-05-27T00:09:59;97671.69;;;21.84;34.50
80124;BME280;69433;48.642;9.142;2023-05-27T00:12:25;97668.25;;;21.83;34.76
80124;BME280;69433;48.642;9.142;2023-05-27T00:14:50;97662.91;;;21.83;34.87
80124;BME280;69433;48.642;9.142;2023-05-27T00:17:17;97663.66;;;21.84;34.62
80124;BME280;69433;48.642;9.142;2023-05-27T00:19:43;97668.25;;;21.83;34.31
80124;BME280;69433;48.642;9.142;2023-05-27T00:22:13;97670.56;;;21.89;34.88
80124;BME280;69433;48.642;9.142;2023-05-27T00:24:39;97664.06;;;21.86;34.66
80124;BME280;69433;48.642;9.142;2023-05-27T00:27:07;97664.81;;;21.87;34.79
80124;BME280;69433;48.642;9.142;2023-05-27T00:29:32;97664.81;;;21.83;34.88
80124;BME280;69433;48.642;9.142;2023-05-27T00:31:57;97661.75;;;21.84;34.59
80124;BME280;69433;48.642;9.142;2023-05-27T00:34:22;97667.13;;;21.88;35.10
80124;BME280;69433;48.642;9.142;2023-05-27T00:36:48;97669.81;;;21.88;34.87
80124;BME280;69433;48.642;9.142;2023-05-27T00:39:13;97663.28;;;21.85;34.18
80124;BME280;69433;48.642;9.142;2023-05-27T00:41:43;97661.78;;;21.81;35.00
80124;BME280;69433;48.642;9.142;2023-05-27T00:44:12;97671.31;;;21.85;34.83
80124;BME280;69433;48.642;9.142;2023-05-27T00:46:37;97662.91;;;21.83;34.87
80124;BME280;69433;48.642;9.142;2023-05-27T00:49:02;97660.63;;;21.85;34.60
80124;BME280;69433;48.642;9.142;2023-05-27T00:51:28;97665.94;;;21.82;34.66
80124;BME280;69433;48.642;9.142;2023-05-27T00:53:53;97662.91;;;21.87;34.81
80124;BME280;69433;48.642;9.142;2023-05-27T00:56:18;97661.78;;;21.88;34.69
80124;BME280;69433;48.642;9.142;2023-05-27T00:58:45;97659.88;;;21.81;34.68
80124;BME280;69433;48.642;9.142;2023-05-27T01:01:11;97657.56;;;21.80;35.04
80124;BME280;69433;48.642;9.142;2023-05-27T01:03:39;97656.03;;;21.86;34.76
80124;BME280;69433;48.642;9.142;2023-05-27T01:09:24;97651.44;;;21.83;34.84
80124;BME280;69433;48.642;9.142;2023-05-27T01:11:59;97651.44;;;21.83;34.76
80124;BME280;69433;48.642;9.142;2023-05-27T01:14:28;97648.00;;;21.79;34.89
80124;BME280;69433;48.642;9.142;2023-05-27T01:16:56;97658.34;;;21.80;34.73
80124;BME280;69433;48.642;9.142;2023-05-27T01:19:30;97659.09;;;21.81;34.85
80124;BME280;69433;48.642;9.142;2023-05-27T01:21:57;97650.28;;;21.77;34.93
80124;BME280;69433;48.642;9.142;2023-05-27T01:24:23;97646.84;;;21.80;34.90
80124;BME280;69433;48.642;9.142;2023-05-27T01:26:49;97644.53;;;21.82;34.45
80124;BME280;69433;48.642;9.142;2023-05-27T01:29:14;97640.75;;;21.79;34.82
80124;BME280;69433;48.642;9.142;2023-05-27T01:31:43;97639.97;;;21.75;35.00
80124;BME280;69433;48.642;9.142;2023-05-27T01:34:15;97633.84;;;21.75;34.97
80124;BME280;69433;48.642;9.142;2023-05-27T01:36:47;97638.44;;;21.74;34.99
80124;BME280;69433;48.642;9.142;2023-05-27T01:39:14;97635.38;;;21.76;35.04
80124;BME280;69433;48.642;9.142;2023-05-27T01:41:42;97628.88;;;21.73;35.00
80124;BME280;69433;48.642;9.142;2023-05-27T01:44:08;97633.84;;;21.71;34.65
80124;BME280;69433;48.642;9.142;2023-05-27T01:46:34;97627.34;;;21.69;35.10
80124;BME280;69433;48.642;9.142;2023-05-27T01:48:59;97628.88;;;21.70;35.14
80124;BME280;69433;48.642;9.142;2023-05-27T01:51:25;97619.69;;;21.74;34.81
80124;BME280;69433;48.642;9.142;2023-05-27T01:53:50;97615.50;;;21.70;34.75
80124;BME280;69433;48.642;9.142;2023-05-27T01:56:16;97615.50;;;21.66;35.14
80124;BME280;69433;48.642;9.142;2023-05-27T01:58:42;97611.66;;;21.64;35.40
80124;BME280;69433;48.642;9.142;2023-05-27T02:01:07;97612.03;;;21.59;35.10
80124;BME280;69433;48.642;9.142;2023-05-27T02:03:32;97614.34;;;21.60;35.11
80124;BME280;69433;48.642;9.142;2023-05-27T02:05:57;97613.94;;;21.58;35.08
80124;BME280;69433;48.642;9.142;2023-05-27T02:08:23;97614.72;;;21.59;35.32
80124;BME280;69433;48.642;9.142;2023-05-27T02:10:48;97614.31;;;21.57;35.32
80124;BME280;69433;48.642;9.142;2023-05-27T02:13:13;97612.03;;;21.59;35.07
80124;BME280;69433;48.642;9.142;2023-05-27T02:15:39;97618.53;;;21.58;35.19
80124;BME280;69433;48.642;9.142;2023-05-27T02:18:05;97621.97;;;21.58;34.99
80124;BME280;69433;48.642;9.142;2023-05-27T02:20:32;97611.66;;;21.60;35.01
80124;BME280;69433;48.642;9.142;2023-05-27T02:22:58;97614.31;;;21.57;35.16
80124;BME280;69433;48.642;9.142;2023-05-27T02:25:23;97610.50;;;21.58;34.97
80124;BME280;69433;48.642;9.142;2023-05-27T02:27:50;97610.13;;;21.56;35.05
80124;BME280;69433;48.642;9.142;2023-05-27T02:30:17;97608.59;;;21.55;35.03
80124;BME280;69433;48.642;9.142;2023-05-27T02:32:42;97607.06;;;21.57;34.95
80124;BME280;69433;48.642;9.142;2023-05-27T02:35:12;97611.66;;;21.57;35.00
80124;BME280;69433;48.642;9.142;2023-05-27T02:37:38;97607.44;;;21.56;35.34
80124;BME280;69433;48.642;9.142;2023-05-27T02:40:05;97612.41;;;21.57;35.17
80124;BME280;69433;48.642;9.142;2023-05-27T02:42:30;97611.66;;;21.57;35.30
80124;BME280;69433;48.642;9.142;2023-05-27T02:44:56;97615.47;;;21.56;34.97
80124;BME280;69433;48.642;9.142;2023-05-27T02:47:21;97607.06;;;21.57;35.05
80124;BME280;69433;48.642;9.142;2023-05-27T02:49:46;97612.78;;;21.56;35.17
80124;BME280;69433;48.642;9.142;2023-05-27T02:52:12;97607.84;;;21.58;35.18
80124;BME280;69433;48.642;9.142;2023-05-27T02:54:37;97611.66;;;21.57;35.25
80124;BME280;69433;48.642;9.142;2023-05-27T02:57:03;97607.81;;;21.47;35.32
80124;BME280;69433;48.642;9.142;2023-05-27T02:59:28;97614.72;;;21.55;35.42
80124;BME280;69433;48.642;9.142;2023-05-27T03:01:56;97611.28;;;21.62;35.12
80124;BME280;69433;48.642;9.142;2023-05-27T03:04:22;97615.09;;;21.68;35.39
80124;BME280;69433;48.642;9.142;2023-05-27T03:06:47;97604.03;;;21.69;35.14
80124;BME280;69433;48.642;9.142;2023-05-27T03:09:12;97608.25;;;21.70;35.16
80124;BME280;69433;48.642;9.142;2023-05-27T03:11:39;97599.44;;;21.70;35.44
80124;BME280;69433;48.642;9.142;2023-05-27T03:14:04;97604.03;;;21.76;35.17
80124;BME280;69433;48.642;9.142;2023-05-27T03:16:29;97602.88;;;21.81;35.36
80124;BME280;69433;48.642;9.142;2023-05-27T03:18:55;97607.47;;;21.88;35.31
80124;BME280;69433;48.642;9.142;2023-05-27T03:21:20;97607.06;;;21.96;35.34
80124;BME280;69433;48.642;9.142;2023-05-27T03:23:48;97594.88;;;22.09;35.64
80124;BME280;69433;48.642;9.142;2023-05-27T03:26:13;97605.16;;;22.21;35.52
80124;BME280;69433;48.642;9.142;2023-05-27T03:28:38;97609.72;;;22.32;36.26
80124;BME280;69433;48.642;9.142;2023-05-27T03:31:04;97603.97;;;22.40;35.95
80124;BME280;69433;48.642;9.142;2023-05-27T03:33:30;97610.09;;;22.48;36.03
80124;BME280;69433;48.642;9.142;2023-05-27T03:35:55;97613.91;;;22.54;36.14
80124;BME280;69433;48.642;9.142;2023-05-27T03:38:21;97615.00;;;22.60;36.18
80124;BME280;69433;48.642;9.142;2023-05-27T03:40:46;97609.28;;;22.65;36.41
80124;BME280;69433;48.642;9.142;2023-05-27T03:43:14;97611.91;;;22.69;36.67
80124;BME280;69433;48.642;9.142;2023-05-27T03:45:40;97608.84;;;22.74;36.67
80124;BME280;69433;48.642;9.142;2023-05-27T03:48:05;97611.56;;;22.77;36.95
80124;BME280;69433;48.642;9.142;2023-05-27T03:50:33;97612.28;;;22.81;36.77
80124;BME280;69433;48.642;9.142;2023-05-27T03:52:58;97604.25;;;22.81;36.96
80124;BME280;69433;48.642;9.142;2023-05-27T03:55:24;97607.69;;;22.82;36.71
80124;BME280;69433;48.642;9.142;2023-05-27T03:57:49;97608.84;;;22.81;36.64
80124;BME280;69433;48.642;9.142;2023-05-27T04:00:15;97605.78;;;22.82;36.77
80124;BME280;69433;48.642;9.142;2023-05-27T04:02:42;97610.75;;;22.84;36.52
80124;BME280;69433;48.642;9.142;2023-05-27T04:05:08;97608.06;;;22.84;36.52
80124;BME280;69433;48.642;9.142;2023-05-27T04:07:33;97603.84;;;22.86;36.72
80124;BME280;69433;48.642;9.142;2023-05-27T04:09:59;97606.13;;;22.88;36.45
80124;BME280;69433;48.642;9.142;2023-05-27T04:12:24;97606.88;;;22.88;36.43
80124;BME280;69433;48.642;9.142;2023-05-27T04:14:50;97607.31;;;22.87;36.55
80124;BME280;69433;48.642;9.142;2023-05-27T04:17:15;97612.25;;;22.88;36.56
80124;BME280;69433;48.642;9.142;2023-05-27T04:19:43;97611.09;;;22.89;36.36
80124;BME280;69433;48.642;9.142;2023-05-27T04:22:08;97613.00;;;22.92;36.26
80124;BME280;69433;48.642;9.142;2023-05-27T04:24:33;97617.22;;;22.90;36.45
80124;BME280;69433;48.642;9.142;2023-05-27T04:26:59;97613.00;;;22.92;36.35
80124;BME280;69433;48.642;9.142;2023-05-27T04:29:24;97611.47;;;22.95;36.41
80124;BME280;69433;48.642;9.142;2023-05-27T04:31:50;97613.41;;;22.94;36.50
80124;BME280;69433;48.642;9.142;2023-05-27T04:34:16;97620.69;;;22.94;36.41
80124;BME280;69433;48.642;9.142;2023-05-27T04:36:42;97615.69;;;22.96;36.32
80124;BME280;69433;48.642;9.142;2023-05-27T04:39:09;97626.00;;;22.98;36.40
80124;BME280;69433;48.642;9.142;2023-05-27T04:41:36;97608.78;;;22.95;36.50
80124;BME280;69433;48.642;9.142;2023-05-27T04:44:04;97613.78;;;22.97;36.39
80124;BME280;69433;48.642;9.142;2023-05-27T04:46:30;97612.59;;;22.98;36.22
80124;BME280;69433;48.642;9.142;2023-05-27T04:48:55;97613.78;;;22.97;36.50
80124;BME280;69433;48.642;9.142;2023-05-27T04:51:21;97622.59;;;22.97;36.46
80124;BME280;69433;48.642;9.142;2023-05-27T04:53:48;97611.44;;;22.99;36.39
80124;BME280;69433;48.642;9.142;2023-05-27T04:56:15;97616.81;;;22.99;36.39
80124;BME280;69433;48.642;9.142;2023-05-27T04:58:41;97614.13;;;22.99;36.53
80124;BME280;69433;48.642;9.142;2023-05-27T05:01:09;97611.44;;;22.99;36.60
80124;BME280;69433;48.642;9.142;2023-05-27T05:03:45;97609.53;;;23.03;36.33
80124;BME280;69433;48.642;9.142;2023-05-27T05:06:49;97612.59;;;23.01;36.43
80124;BME280;69433;48.642;9.142;2023-05-27T05:09:27;97616.03;;;23.02;36.55
80124;BME280;69433;48.642;9.142;2023-05-27T05:11:52;97617.19;;;23.04;36.52
80124;BME280;69433;48.642;9.142;2023-05-27T05:14:17;97608.75;;;23.06;36.42
80124;BME280;69433;48.642;9.142;2023-05-27T05:16:42;97613.69;;;23.11;36.36
80124;BME280;69433;48.642;9.142;2023-05-27T05:19:08;97616.00;;;23.12;36.47
80124;BME280;69433;48.642;9.142;2023-05-27T05:21:33;97613.69;;;23.14;36.46
80124;BME280;69433;48.642;9.142;2023-05-27T05:23:58;97609.84;;;23.15;36.36
80124;BME280;69433;48.642;9.142;2023-05-27T05:26:23;97608.69;;;23.16;36.26
80124;BME280;69433;48.642;9.142;2023-05-27T05:28:49;97609.81;;;23.19;36.44
80124;BME280;69433;48.642;9.142;2023-05-27T05:31:14;97609.03;;;23.18;36.32
80124;BME280;69433;48.642;9.142;2023-05-27T05:33:39;97612.88;;;23.21;36.38
80124;BME280;69433;48.642;9.142;2023-05-27T05:36:05;97615.16;;;23.22;36.34
80124;BME280;69433;48.642;9.142;2023-05-27T05:38:30;97622.81;;;23.24;36.50
80124;BME280;69433;48.642;9.142;2023-05-27T05:40:56;97624.34;;;23.25;36.29
80124;BME280;69433;48.642;9.142;2023-05-27T05:43:21;97628.91;;;23.28;36.30
80124;BME280;69433;48.642;9.142;2023-05-27T05:45:47;97625.09;;;23.29;36.40
80124;BME280;69433;48.642;9.142;2023-05-27T05:48:16;97625.47;;;23.31;36.46
80124;BME280;69433;48.642;9.142;2023-05-27T05:50:41;97620.84;;;23.31;36.24
80124;BME280;69433;48.642;9.142;2023-05-27T05:53:08;97619.72;;;23.33;36.36
80124;BME280;69433;48.642;9.142;2023-05-27T05:55:34;97620.84;;;23.35;36.42
80124;BME280;69433;48.642;9.142;2023-05-27T05:57:59;97615.84;;;23.37;36.49
80124;BME280;69433;48.642;9.142;2023-05-27T06:00:27;97605.09;;;23.37;36.48
80124;BME280;69433;48.642;9.142;2023-05-27T06:02:53;97625.78;;;23.40;36.35
80124;BME280;69433;48.642;9.142;2023-05-27T06:05:18;97613.13;;;23.41;36.32
80124;BME280;69433;48.642;9.142;2023-05-27T06:07:43;97618.88;;;23.43;36.30
80124;BME280;69433;48.642;9.142;2023-05-27T06:10:10;97615.81;;;23.44;36.25
80124;BME280;69433;48.642;9.142;2023-05-27T06:12:36;97613.47;;;23.46;36.19
80124;BME280;69433;48.642;9.142;2023-05-27T06:15:02;97616.53;;;23.48;36.52
80124;BME280;69433;48.642;9.142;2023-05-27T06:17:27;97618.84;;;23.50;36.50
80124;BME280;69433;48.642;9.142;2023-05-27T06:19:52;97611.19;;;23.52;36.21
80124;BME280;69433;48.642;9.142;2023-05-27T06:22:17;97608.88;;;23.54;36.53
80124;BME280;69433;48.642;9.142;2023-05-27T06:24:43;97612.66;;;23.56;36.27
80124;BME280;69433;48.642;9.142;2023-05-27T06:27:08;97611.50;;;23.57;36.45
80124;BME280;69433;48.642;9.142;2023-05-27T06:29:33;97608.06;;;23.60;36.15
80124;BME280;69433;48.642;9.142;2023-05-27T06:32:02;97607.28;;;23.63;36.34
80124;BME280;69433;48.642;9.142;2023-05-27T06:34:27;97610.31;;;23.65;36.23
80124;BME280;69433;48.642;9.142;2023-05-27T06:36:52;97614.13;;;23.68;36.09
80124;BME280;69433;48.642;9.142;2023-05-27T06:39:17;97614.09;;;23.72;36.40
80124;BME280;69433;48.642;9.142;2023-05-27T06:41:43;97605.25;;;23.75;36.18
80124;BME280;69433;48.642;9.142;2023-05-27T06:44:08;97617.13;;;23.77;36.18
80124;BME280;69433;48.642;9.142;2023-05-27T06:46:33;97614.41;;;23.81;36.02
80124;BME280;69433;48.642;9.142;2023-05-27T06:48:59;97610.91;;;23.84;36.17
80124;BME280;69433;48.642;9.142;2023-05-27T06:51:24;97612.44;;;23.85;36.28
80124;BME280;69433;48.642;9.142;2023-05-27T06:53:50;97605.91;;;23.86;36.56
80124;BME280;69433;48.642;9.142;2023-05-27T06:56:15;97612.03;;;23.90;36.45
80124;BME280;69433;48.642;9.142;2023-05-27T06:58:40;97610.50;;;23.92;36.48
80124;BME280;69433;48.642;9.142;2023-05-27T07:01:06;97612.75;;;23.94;36.65
80124;BME280;69433;48.642;9.142;2023-05-27T07:03:32;97609.28;;;23.97;36.53
80124;BME280;69433;48.642;9.142;2023-05-27T07:05:58;97603.13;;;24.00;36.14
80124;BME280;69433;48.642;9.142;2023-05-27T07:08:29;97600.81;;;24.02;36.39
80124;BME280;69433;48.642;9.142;2023-05-27T07:10:55;97603.84;;;24.04;36.33
80124;BME280;69433;48.642;9.142;2023-05-27T07:13:20;97600.00;;;24.05;36.17
80124;BME280;69433;48.642;9.142;2023-05-27T07:15:45;97604.59;;;24.08;36.15
80124;BME280;69433;48.642;9.142;2023-05-27T07:18:11;97610.72;;;24.09;36.21
80124;BME280;69433;48.642;9.142;2023-05-27T07:20:36;97612.63;;;24.12;36.38
80124;BME280;69433;48.642;9.142;2023-05-27T07:23:03;97613.72;;;24.14;36.52
80124;BME280;69433;48.642;9.142;2023-05-27T07:25:29;97618.72;;;24.16;36.29
80124;BME280;69433;48.642;9.142;2023-05-27T07:27:54;97616.03;;;24.16;36.39
80124;BME280;69433;48.642;9.142;2023-05-27T07:30:19;97612.94;;;24.17;36.11
80124;BME280;69433;48.642;9.142;2023-05-27T07:32:45;97616.00;;;24.19;36.38
80124;BME280;69433;48.642;9.142;2023-05-27T07:35:10;97619.44;;;24.20;36.24
80124;BME280;69433;48.642;9.142;2023-05-27T07:37:36;97606.41;;;24.22;36.17
80124;BME280;69433;48.642;9.142;2023-05-27T07:40:01;97609.09;;;24.22;36.25
80124;BME280;69433;48.642;9.142;2023-05-27T07:42:26;97610.22;;;24.24;36.32
80124;BME280;69433;48.642;9.142;2023-05-27T07:44:53;97609.78;;;24.29;36.08
80124;BME280;69433;48.642;9.142;2023-05-27T07:47:21;97605.56;;;24.28;36.20
80124;BME280;69433;48.642;9.142;2023-05-27T07:49:49;97597.50;;;24.28;36.32
80124;BME280;69433;48.642;9.142;2023-05-27T07:52:14;97599.41;;;24.31;36.42
80124;BME280;69433;48.642;9.142;2023-05-27T07:54:40;97598.66;;;24.31;36.12
80124;BME280;69433;48.642;9.142;2023-05-27T07:57:05;97596.31;;;24.33;36.51
80124;BME280;69433;48.642;9.142;2023-05-27T07:59:36;97591.28;;;24.35;36.36
80124;BME280;69433;48.642;9.142;2023-05-27T08:02:01;97593.59;;;24.36;36.29
80124;BME280;69433;48.642;9.142;2023-05-27T08:04:27;97595.13;;;24.37;36.09
80124;BME280;69433;48.642;9.142;2023-05-27T08:06:52;97585.91;;;24.38;36.39
80124;BME280;69433;48.642;9.142;2023-05-27T08:09:17;97583.56;;;24.40;36.11
80124;BME280;69433;48.642;9.142;2023-05-27T08:11:43;97586.59;;;24.42;36.12
80124;BME280;69433;48.642;9.142;2023-05-27T08:14:08;97595.03;;;24.45;36.19
80124;BME280;69433;48.642;9.142;2023-05-27T08:16:34;97581.19;;;24.46;36.10
80124;BME280;69433;48.642;9.142;2023-05-27T08:18:59;97577.34;;;24.47;36.40
80124;BME280;69433;48.642;9.142;2023-05-27T08:21:25;97575.78;;;24.50;36.28
80124;BME280;69433;48.642;9.142;2023-05-27T08:23:52;97580.34;;;24.53;35.93
80124;BME280;69433;48.642;9.142;2023-05-27T08:26:17;97570.34;;;24.53;36.22
80124;BME280;69433;48.642;9.142;2023-05-27T08:28:42;97578.78;;;24.55;36.31
80124;BME280;69433;48.642;9.142;2023-05-27T08:31:08;97574.53;;;24.58;36.35
80124;BME280;69433;48.642;9.142;2023-05-27T08:33:33;97568.00;;;24.59;36.33
80124;BME280;69433;48.642;9.142;2023-05-27T08:35:58;97565.66;;;24.61;35.98
80124;BME280;69433;48.642;9.142;2023-05-27T08:38:23;97574.09;;;24.63;36.17
80124;BME280;69433;48.642;9.142;2023-05-27T08:40:49;97556.78;;;24.64;35.99
80124;BME280;69433;48.642;9.142;2023-05-27T08:43:15;97562.94;;;24.64;36.31
80124;BME280;69433;48.642;9.142;2023-05-27T08:45:40;97554.47;;;24.66;36.28
80124;BME280;69433;48.642;9.142;2023-05-27T08:48:08;97544.47;;;24.66;36.39
80124;BME280;69433;48.642;9.142;2023-05-27T08:50:33;97550.97;;;24.69;36.27
80124;BME280;69433;48.642;9.142;2023-05-27T08:52:59;97545.19;;;24.70;36.03
80124;BME280;69433;48.642;9.142;2023-05-27T08:55:26;97555.53;;;24.72;36.25
80124;BME280;69433;48.642;9.142;2023-05-27T08:57:56;97552.44;;;24.73;35.95
80124;BME280;69433;48.642;9.142;2023-05-27T09:00:23;97543.97;;;24.75;35.90
80124;BME280;69433;48.642;9.142;2023-05-27T09:02:48;97552.06;;;24.75;36.30
80124;BME280;69433;48.642;9.142;2023-05-27T09:05:15;97552.41;;;24.77;36.10
80124;BME280;69433;48.642;9.142;2023-05-27T09:07:41;97544.34;;;24.77;35.97
80124;BME280;69433;48.642;9.142;2023-05-27T09:10:07;97546.63;;;24.78;36.18
80124;BME280;69433;48.642;9.142;2023-05-27T09:12:33;97542.03;;;24.79;35.97
80124;BME280;69433;48.642;9.142;2023-05-27T09:14:59;97542.34;;;24.81;36.14
80124;BME280;69433;48.642;9.142;2023-05-27T09:17:24;97547.72;;;24.81;36.33
80124;BME280;69433;48.642;9.142;2023-05-27T09:19:51;97550.78;;;24.83;36.23
80124;BME280;69433;48.642;9.142;2023-05-27T09:22:25;97536.19;;;24.84;35.98
80124;BME280;69433;48.642;9.142;2023-05-27T09:24:54;97536.19;;;24.84;36.13
80124;BME280;69433;48.642;9.142;2023-05-27T09:27:27;97535.00;;;24.85;36.24
80124;BME280;69433;48.642;9.142;2023-05-27T09:29:54;97540.75;;;24.87;35.84
80124;BME280;69433;48.642;9.142;2023-05-27T09:32:26;97533.03;;;24.89;35.95
80124;BME280;69433;48.642;9.142;2023-05-27T09:34:53;97533.78;;;24.90;35.97
80124;BME280;69433;48.642;9.142;2023-05-27T09:37:18;97531.09;;;24.90;35.97
80124;BME280;69433;48.642;9.142;2023-05-27T09:39:46;97529.56;;;24.92;35.89
80124;BME280;69433;48.642;9.142;2023-05-27T09:42:11;97523.41;;;24.92;36.08
80124;BME280;69433;48.642;9.142;2023-05-27T09:44:38;97526.88;;;24.92;35.97
80124;BME280;69433;48.642;9.142;2023-05-27T09:47:07;97523.00;;;24.93;36.09
80124;BME280;69433;48.642;9.142;2023-05-27T09:49:33;97526.84;;;24.96;36.26
80124;BME280;69433;48.642;9.142;2023-05-27T09:52:00;97524.91;;;24.96;35.95
80124;BME280;69433;48.642;9.142;2023-05-27T09:54:26;97517.59;;;24.97;36.26
80124;BME280;69433;48.642;9.142;2023-05-27T09:56:52;97513.31;;;24.99;36.22
80124;BME280;69433;48.642;9.142;2023-05-27T09:59:17;97515.28;;;24.99;36.32
80124;BME280;69433;48.642;9.142;2023-05-27T10:01:45;97514.84;;;25.00;36.21
80124;BME280;69433;48.642;9.142;2023-05-27T10:04:14;97504.44;;;25.02;35.90
80124;BME280;69433;48.642;9.142;2023-05-27T10:06:40;97511.75;;;25.02;36.00
80124;BME280;69433;48.642;9.142;2023-05-27T10:09:06;97518.66;;;25.03;36.24
80124;BME280;69433;48.642;9.142;2023-05-27T10:11:35;97509.00;;;25.05;36.22
80124;BME280;69433;48.642;9.142;2023-05-27T10:14:02;97509.00;;;25.05;36.11
80124;BME280;69433;48.642;9.142;2023-05-27T10:16:28;97516.69;;;25.07;36.08
80124;BME280;69433;48.642;9.142;2023-05-27T10:18:55;97506.31;;;25.05;36.07
80124;BME280;69433;48.642;9.142;2023-05-27T10:21:22;97502.84;;;25.08;36.25
80124;BME280;69433;48.642;9.142;2023-05-27T10:24:04;97500.88;;;25.09;36.14
80124;BME280;69433;48.642;9.142;2023-05-27T10:26:35;97508.22;;;25.08;35.92
80124;BME280;69433;48.642;9.142;2023-05-27T10:29:08;97510.91;;;25.08;36.29
80124;BME280;69433;48.642;9.142;2023-05-27T10:31:34;97494.31;;;25.10;35.87
80124;BME280;69433;48.642;9.142;2023-05-27T10:34:04;97491.22;;;25.11;36.05
80124;BME280;69433;48.642;9.142;2023-05-27T10:36:31;97493.53;;;25.13;36.20
80124;BME280;69433;48.642;9.142;2023-05-27T10:39:16;97488.13;;;25.13;36.17
80124;BME280;69433;48.642;9.142;2023-05-27T10:41:43;97486.22;;;25.13;36.27
80124;BME280;69433;48.642;9.142;2023-05-27T10:44:10;97480.44;;;25.15;36.06
80124;BME280;69433;48.642;9.142;2023-05-27T10:46:43;97485.03;;;25.14;36.38
80124;BME280;69433;48.642;9.142;2023-05-27T10:49:23;97480.03;;;25.17;35.95
80124;BME280;69433;48.642;9.142;2023-05-27T10:51:50;97480.03;;;25.17;35.93
80124;BME280;69433;48.642;9.142;2023-05-27T10:54:16;97483.47;;;25.17;36.11
80124;BME280;69433;48.642;9.142;2023-05-27T10:56:51;97469.59;;;25.19;35.99
80124;BME280;69433;48.642;9.142;2023-05-27T10:59:20;97492.66;;;25.20;36.30
80124;BME280;69433;48.642;9.142;2023-05-27T11:01:53;97487.25;;;25.20;36.05
80124;BME280;69433;48.642;9.142;2023-05-27T11:04:19;97488.78;;;25.21;36.25
80124;BME280;69433;48.642;9.142;2023-05-27T11:07:00;97475.69;;;25.23;36.35
80124;BME280;69433;48.642;9.142;2023-05-27T11:09:26;97470.31;;;25.23;35.97
80124;BME280;69433;48.642;9.142;2023-05-27T11:11:52;97472.22;;;25.22;36.16
80124;BME280;69433;48.642;9.142;2023-05-27T11:14:17;97469.53;;;25.22;36.17
80124;BME280;69433;48.642;9.142;2023-05-27T11:16:47;97458.38;;;25.24;36.07
80124;BME280;69433;48.642;9.142;2023-05-27T11:19:15;97467.97;;;25.25;36.22
80124;BME280;69433;48.642;9.142;2023-05-27T11:21:47;97472.59;;;25.24;36.06
80124;BME280;69433;48.642;9.142;2023-05-27T11:24:19;97463.34;;;25.25;36.16
80124;BME280;69433;48.642;9.142;2023-05-27T11:26:46;97461.03;;;25.27;36.45
80124;BME280;69433;48.642;9.142;2023-05-27T11:29:13;97465.63;;;25.27;36.04
80124;BME280;69433;48.642;9.142;2023-05-27T11:31:38;97456.44;;;25.24;36.36
80124;BME280;69433;48.642;9.142;2023-05-27T11:34:14;97446.44;;;25.25;36.39
80124;BME280;69433;48.642;9.142;2023-05-27T11:36:40;97448.38;;;25.24;36.37
80124;BME280;69433;48.642;9.142;2023-05-27T11:39:10;97439.13;;;25.25;36.51
80124;BME280;69433;48.642;9.142;2023-05-27T11:41:47;97437.56;;;25.28;36.12
80124;BME280;69433;48.642;9.142;2023-05-27T11:44:13;97442.50;;;25.29;36.31
80124;BME280;69433;48.642;9.142;2023-05-27T11:46:43;97443.28;;;25.30;36.46
80124;BME280;69433;48.642;9.142;2023-05-27T11:49:09;97435.59;;;25.28;36.17
80124;BME280;69433;48.642;9.142;2023-05-27T11:51:43;97425.59;;;25.29;36.28
80124;BME280;69433;48.642;9.142;2023-05-27T11:54:25;97417.19;;;25.27;36.34
80124;BME280;69433;48.642;9.142;2023-05-27T11:56:52;97424.09;;;25.28;36.56
80124;BME280;69433;48.642;9.142;2023-05-27T11:59:19;97426.78;;;25.28;36.20
80124;BME280;69433;48.642;9.142;2023-05-27T12:01:44;97414.84;;;25.29;36.40
80124;BME280;69433;48.642;9.142;2023-05-27T12:04:13;97410.97;;;25.30;36.57
80124;BME280;69433;48.642;9.142;2023-05-27T12:06:39;97399.44;;;25.29;36.61
80124;BME280;69433;48.642;9.142;2023-05-27T12:09:05;97389.13;;;25.28;36.29
80124;BME280;69433;48.642;9.142;2023-05-27T12:11:32;97394.84;;;25.30;36.58
80124;BME280;69433;48.642;9.142;2023-05-27T12:13:57;97399.44;;;25.29;36.65
80124;BME280;69433;48.642;9.142;2023-05-27T12:16:23;97378.69;;;25.30;36.61
80124;BME280;69433;48.642;9.142;2023-05-27T12:18:48;97379.44;;;25.30;36.70
80124;BME280;69433;48.642;9.142;2023-05-27T12:21:15;97384.06;;;25.30;36.69
80124;BME280;69433;48.642;9.142;2023-05-27T12:23:49;97376.00;;;25.30;36.59
80124;BME280;69433;48.642;9.142;2023-05-27T12:26:16;97367.16;;;25.29;36.58
80124;BME280;69433;48.642;9.142;2023-05-27T12:28:42;97369.09;;;25.29;36.35
80124;BME280;69433;48.642;9.142;2023-05-27T12:31:07;97377.50;;;25.31;36.25
80124;BME280;69433;48.642;9.142;2023-05-27T12:33:33;97368.28;;;25.32;36.55
80124;BME280;69433;48.642;9.142;2023-05-27T12:35:59;97364.81;;;25.31;36.44
80124;BME280;69433;48.642;9.142;2023-05-27T12:38:25;97369.09;;;25.29;36.69
80124;BME280;69433;48.642;9.142;2023-05-27T12:40:51;97371.38;;;25.30;36.73
80124;BME280;69433;48.642;9.142;2023-05-27T12:43:17;97362.13;;;25.31;36.79
80124;BME280;69433;48.642;9.142;2023-05-27T12:45:43;97368.63;;;25.34;36.72
80124;BME280;69433;48.642;9.142;2023-05-27T12:48:08;97364.75;;;25.35;36.63
80124;BME280;69433;48.642;9.142;2023-05-27T12:50:33;97364.00;;;25.34;36.79
80124;BME280;69433;48.642;9.142;2023-05-27T12:52:59;97354.00;;;25.35;36.32
80124;BME280;69433;48.642;9.142;2023-05-27T12:55:25;97360.91;;;25.36;36.69
80124;BME280;69433;48.642;9.142;2023-05-27T12:57:51;97347.03;;;25.37;36.64
80124;BME280;69433;48.642;9.142;2023-05-27T13:00:18;97349.38;;;25.35;36.80